sensor_id;sensor_type;location;lat;lon;timestamp;temperature;humidity
26589;DHT22;14235;48.532;8.722;2023-09-30T00:01:22;16.80;99.90
26589;DHT22;14235;48.532;8.722;2023-09-30T00:03:47;16.80;99.90
26589;DHT22;14235;48.532;8.722;2023-09-30T00:06:13;16.70;99.90
26589;DHT22;14235;48.532;8.722;2023-09-30T00:08:39;16.70;99.90
26589;DHT22;14235;48.532;8.722;2023-09-30T00:11:07;16.60;99.90
26589;DHT22;14235;48.532;8.722;2023-09-30T00:13:33;16.60;99.90
26589;DHT22;14235;48.532;8.722;2023-09-30T00:15:58;16.50;99.90
26589;DHT22;14235;48.532;8.722;2023-09-30T00:18:24;16.60;99.90
26589;DHT22;14235;48.532;8.722;2023-09-30T00:20:50;16.50;99.90
26589;DHT22;14235;48.532;8.722;2023-09-30T00:23:16;16.60;99.90
26589;DHT22;14235;48.532;8.722;2023-09-30T00:25:41;16.50;99.90
26589;DHT22;14235;48.532;8.722;2023-09-30T00:28:07;16.50;99.90
26589;DHT22;14235;48.532;8.722;2023-09-30T00:30:33;16.40;99.90
26589;DHT22;14235;48.532;8.722;2023-09-30T00:32:59;16.60;99.90
26589;DHT22;14235;48.532;8.722;2023-09-30T00:35:25;16.50;99.90
26589;DHT22;14235;48.532;8.722;2023-09-30T00:37:51;16.60;99.90
26589;DHT22;14235;48.532;8.722;2023-09-30T00:40:17;16.60;99.90
26589;DHT22;14235;48.532;8.722;2023-09-30T00:42:42;16.50;99.90
26589;DHT22;14235;48.532;8.722;2023-09-30T00:45:09;16.60;99.90
26589;DHT22;14235;48.532;8.722;2023-09-30T00:47:36;16.50;99.90
26589;DHT22;14235;48.532;8.722;2023-09-30T00:50:02;16.60;99.90
26589;DHT22;14235;48.532;8.722;2023-09-30T00:52:32;16.40;99.90
26589;DHT22;14235;48.532;8.722;2023-09-30T00:54:59;16.50;99.90
26589;DHT22;14235;48.532;8.722;2023-09-30T00:57:25;16.40;99.90
26589;DHT22;14235;48.532;8.722;2023-09-30T00:59:51;16.40;99.90
26589;DHT22;14235;48.532;8.722;2023-09-30T01:02:21;16.50;99.90
26589;DHT22;14235;48.532;8.722;2023-09-30T01:04:48;16.60;99.90
26589;DHT22;14235;48.532;8.722;2023-09-30T01:07:14;16.50;99.90
26589;DHT22;14235;48.532;8.722;2023-09-30T01:09:40;16.50;99.90
26589;DHT22;14235;48.532;8.722;2023-09-30T01:12:06;16.50;99.90
26589;DHT22;14235;48.532;8.722;2023-09-30T01:14:34;16.50;99.90
26589;DHT22;14235;48.532;8.722;2023-09-30T01:17:00;16.50;99.90
26589;DHT22;14235;48.532;8.722;2023-09-30T01:19:26;16.50;99.90
26589;DHT22;14235;48.532;8.722;2023-09-30T01:21:58;16.50;99.90
26589;DHT22;14235;48.532;8.722;2023-09-30T01:24:37;16.40;99.90
26589;DHT22;14235;48.532;8.722;2023-09-30T01:27:03;16.50;99.90
26589;DHT22;14235;48.532;8.722;2023-09-30T01:29:29;16.50;99.90
26589;DHT22;14235;48.532;8.722;2023-09-30T01:32:14;16.40;99.90
26589;DHT22;14235;48.532;8.722;2023-09-30T01:34:39;17.10;99.90
26589;DHT22;14235;48.532;8.722;2023-09-30T01:37:05;16.40;99.90
26589;DHT22;14235;48.532;8.722;2023-09-30T01:39:31;16.20;99.90
26589;DHT22;14235;48.532;8.722;2023-09-30T01:41:57;16.30;99.90
26589;DHT22;14235;48.532;8.722;2023-09-30T01:44:23;16.10;99.90
26589;DHT22;14235;48.532;8.722;2023-09-30T01:46:49;16.10;99.90
26589;DHT22;14235;48.532;8.722;2023-09-30T01:49:14;16.20;99.90
26589;DHT22;14235;48.532;8.722;2023-09-30T01:51:40;16.20;99.90
26589;DHT22;14235;48.532;8.722;2023-09-30T01:54:05;16.30;99.90
26589;DHT22;14235;48.532;8.722;2023-09-30T01:56:31;16.10;99.90
26589;DHT22;14235;48.532;8.722;2023-09-30T01:58:57;16.30;99.90
26589;DHT22;14235;48.532;8.722;2023-09-30T02:01:22;16.20;99.90
26589;DHT22;14235;48.532;8.722;2023-09-30T02:03:48;16.20;99.90
26589;DHT22;14235;48.532;8.722;2023-09-30T02:06:15;16.10;99.90
26589;DHT22;14235;48.532;8.722;2023-09-30T02:08:40;16.20;99.90
26589;DHT22;14235;48.532;8.722;2023-09-30T02:11:06;16.20;99.90
26589;DHT22;14235;48.532;8.722;2023-09-30T02:13:33;16.40;99.90
26589;DHT22;14235;48.532;8.722;2023-09-30T02:16:00;16.10;99.90
26589;DHT22;14235;48.532;8.722;2023-09-30T02:18:27;16.20;99.90
26589;DHT22;14235;48.532;8.722;2023-09-30T02:20:52;16.20;99.90
26589;DHT22;14235;48.532;8.722;2023-09-30T02:23:19;16.00;99.90
26589;DHT22;14235;48.532;8.722;2023-09-30T02:25:44;16.10;99.90
26589;DHT22;14235;48.532;8.722;2023-09-30T02:28:10;16.10;99.90
26589;DHT22;14235;48.532;8.722;2023-09-30T02:30:36;16.20;99.90
26589;DHT22;14235;48.532;8.722;2023-09-30T02:33:02;16.20;99.90
26589;DHT22;14235;48.532;8.722;2023-09-30T02:35:28;15.90;99.90
26589;DHT22;14235;48.532;8.722;2023-09-30T02:37:54;15.90;99.90
26589;DHT22;14235;48.532;8.722;2023-09-30T02:40:20;16.00;99.90
26589;DHT22;14235;48.532;8.722;2023-09-30T02:42:46;15.80;99.90
26589;DHT22;14235;48.532;8.722;2023-09-30T02:45:12;15.70;99.90
26589;DHT22;14235;48.532;8.722;2023-09-30T02:47:39;15.90;99.90
26589;DHT22;14235;48.532;8.722;2023-09-30T02:50:06;15.90;99.90
26589;DHT22;14235;48.532;8.722;2023-09-30T02:52:33;15.90;99.90
26589;DHT22;14235;48.532;8.722;2023-09-30T02:54:59;15.80;99.90
26589;DHT22;14235;48.532;8.722;2023-09-30T02:57:25;15.70;99.90
26589;DHT22;14235;48.532;8.722;2023-09-30T02:59:53;15.70;99.90
26589;DHT22;14235;48.532;8.722;2023-09-30T03:02:20;15.60;99.90
26589;DHT22;14235;48.532;8.722;2023-09-30T03:04:46;15.50;99.90
26589;DHT22;14235;48.532;8.722;2023-09-30T03:07:13;15.80;99.90
26589;DHT22;14235;48.532;8.722;2023-09-30T03:09:39;15.80;99.90
26589;DHT22;14235;48.532;8.722;2023-09-30T03:12:05;15.80;99.90
26589;DHT22;14235;48.532;8.722;2023-09-30T03:14:31;15.90;99.90
26589;DHT22;14235;48.532;8.722;2023-09-30T03:16:57;16.10;99.90
26589;DHT22;14235;48.532;8.722;2023-09-30T03:19:23;16.00;99.90
26589;DHT22;14235;48.532;8.722;2023-09-30T03:21:49;16.00;99.90
26589;DHT22;14235;48.532;8.722;2023-09-30T03:24:15;15.90;99.90
26589;DHT22;14235;48.532;8.722;2023-09-30T03:26:41;15.90;99.90
26589;DHT22;14235;48.532;8.722;2023-09-30T03:29:07;15.90;99.90
26589;DHT22;14235;48.532;8.722;2023-09-30T03:31:34;16.00;99.90
26589;DHT22;14235;48.532;8.722;2023-09-30T03:34:00;16.00;99.90
26589;DHT22;14235;48.532;8.722;2023-09-30T03:36:26;16.20;99.90
26589;DHT22;14235;48.532;8.722;2023-09-30T03:38:52;15.90;99.90
26589;DHT22;14235;48.532;8.722;2023-09-30T03:41:22;15.90;99.90
26589;DHT22;14235;48.532;8.722;2023-09-30T03:43:47;16.10;99.90
26589;DHT22;14235;48.532;8.722;2023-09-30T03:46:15;16.10;99.90
26589;DHT22;14235;48.532;8.722;2023-09-30T03:48:41;16.10;99.90
26589;DHT22;14235;48.532;8.722;2023-09-30T03:51:14;15.90;99.90
26589;DHT22;14235;48.532;8.722;2023-09-30T03:53:46;15.90;99.90
26589;DHT22;14235;48.532;8.722;2023-09-30T03:56:12;16.70;99.90
26589;DHT22;14235;48.532;8.722;2023-09-30T03:58:39;16.00;99.90
26589;DHT22;14235;48.532;8.722;2023-09-30T04:01:05;16.00;99.90
26589;DHT22;14235;48.532;8.722;2023-09-30T04:03:31;16.00;99.90
26589;DHT22;14235;48.532;8.722;2023-09-30T04:06:01;15.80;99.90
26589;DHT22;14235;48.532;8.722;2023-09-30T04:08:27;16.10;99.90
26589;DHT22;14235;48.532;8.722;2023-09-30T04:10:54;15.80;99.90
26589;DHT22;14235;48.532;8.722;2023-09-30T04:13:19;15.80;99.90
26589;DHT22;14235;48.532;8.722;2023-09-30T04:15:46;15.70;99.90
26589;DHT22;14235;48.532;8.722;2023-09-30T04:18:12;15.70;99.90
26589;DHT22;14235;48.532;8.722;2023-09-30T04:20:38;15.70;99.90
26589;DHT22;14235;48.532;8.722;2023-09-30T04:23:06;15.80;99.90
26589;DHT22;14235;48.532;8.722;2023-09-30T04:25:32;15.80;99.90
26589;DHT22;14235;48.532;8.722;2023-09-30T04:27:58;15.60;99.90
26589;DHT22;14235;48.532;8.722;2023-09-30T04:30:23;15.80;99.90
26589;DHT22;14235;48.532;8.722;2023-09-30T04:32:49;15.80;99.90
26589;DHT22;14235;48.532;8.722;2023-09-30T04:35:15;15.80;99.90
26589;DHT22;14235;48.532;8.722;2023-09-30T04:37:40;15.50;99.90
26589;DHT22;14235;48.532;8.722;2023-09-30T04:40:08;15.70;99.90
26589;DHT22;14235;48.532;8.722;2023-09-30T04:42:45;16.00;99.90
26589;DHT22;14235;48.532;8.722;2023-09-30T04:45:12;15.70;99.90
26589;DHT22;14235;48.532;8.722;2023-09-30T04:47:38;15.70;99.90
26589;DHT22;14235;48.532;8.722;2023-09-30T04:50:07;16.00;99.90
26589;DHT22;14235;48.532;8.722;2023-09-30T04:52:36;15.70;99.90
26589;DHT22;14235;48.532;8.722;2023-09-30T04:55:02;15.70;99.90
26589;DHT22;14235;48.532;8.722;2023-09-30T04:57:31;15.60;99.90
26589;DHT22;14235;48.532;8.722;2023-09-30T04:59:57;15.70;99.90
26589;DHT22;14235;48.532;8.722;2023-09-30T05:02:24;16.00;99.90
26589;DHT22;14235;48.532;8.722;2023-09-30T05:04:49;15.70;99.90
26589;DHT22;14235;48.532;8.722;2023-09-30T05:07:15;15.60;99.90
26589;DHT22;14235;48.532;8.722;2023-09-30T05:09:41;15.70;99.90
26589;DHT22;14235;48.532;8.722;2023-09-30T05:12:07;15.70;99.90
26589;DHT22;14235;48.532;8.722;2023-09-30T05:14:35;15.60;99.90
26589;DHT22;14235;48.532;8.722;2023-09-30T05:17:02;15.70;99.90
26589;DHT22;14235;48.532;8.722;2023-09-30T05:19:29;15.70;99.90
26589;DHT22;14235;48.532;8.722;2023-09-30T05:21:57;15.80;99.90
26589;DHT22;14235;48.532;8.722;2023-09-30T05:24:23;15.60;99.90
26589;DHT22;14235;48.532;8.722;2023-09-30T05:26:48;15.70;99.90
26589;DHT22;14235;48.532;8.722;2023-09-30T05:29:14;15.60;99.90
26589;DHT22;14235;48.532;8.722;2023-09-30T05:31:40;15.60;99.90
26589;DHT22;14235;48.532;8.722;2023-09-30T05:34:05;15.80;99.90
26589;DHT22;14235;48.532;8.722;2023-09-30T05:36:31;16.00;99.90
26589;DHT22;14235;48.532;8.722;2023-09-30T05:38:56;15.90;99.90
26589;DHT22;14235;48.532;8.722;2023-09-30T05:41:22;15.90;99.90
26589;DHT22;14235;48.532;8.722;2023-09-30T05:43:48;15.80;99.90
26589;DHT22;14235;48.532;8.722;2023-09-30T05:46:15;15.70;99.90
26589;DHT22;14235;48.532;8.722;2023-09-30T05:48:41;15.70;99.90
26589;DHT22;14235;48.532;8.722;2023-09-30T05:51:07;15.90;99.90
26589;DHT22;14235;48.532;8.722;2023-09-30T05:53:32;15.60;99.90
26589;DHT22;14235;48.532;8.722;2023-09-30T05:55:59;15.70;99.90
26589;DHT22;14235;48.532;8.722;2023-09-30T05:58:25;15.70;99.90
26589;DHT22;14235;48.532;8.722;2023-09-30T06:00:52;15.60;99.90
26589;DHT22;14235;48.532;8.722;2023-09-30T06:03:18;15.70;99.90
26589;DHT22;14235;48.532;8.722;2023-09-30T06:05:44;15.80;99.90
26589;DHT22;14235;48.532;8.722;2023-09-30T06:08:10;15.70;99.90
26589;DHT22;14235;48.532;8.722;2023-09-30T06:10:40;15.60;99.90
26589;DHT22;14235;48.532;8.722;2023-09-30T06:13:08;15.90;99.90
26589;DHT22;14235;48.532;8.722;2023-09-30T06:15:36;15.60;99.90
26589;DHT22;14235;48.532;8.722;2023-09-30T06:18:02;15.60;99.90
26589;DHT22;14235;48.532;8.722;2023-09-30T06:20:29;15.60;99.90
26589;DHT22;14235;48.532;8.722;2023-09-30T06:22:56;15.60;99.90
26589;DHT22;14235;48.532;8.722;2023-09-30T06:25:22;15.60;99.90
26589;DHT22;14235;48.532;8.722;2023-09-30T06:27:50;15.50;99.90
26589;DHT22;14235;48.532;8.722;2023-09-30T06:30:16;15.50;99.90
26589;DHT22;14235;48.532;8.722;2023-09-30T06:32:42;15.60;99.90
26589;DHT22;14235;48.532;8.722;2023-09-30T06:35:08;15.50;99.90
26589;DHT22;14235;48.532;8.722;2023-09-30T06:37:37;15.50;99.90
26589;DHT22;14235;48.532;8.722;2023-09-30T06:40:06;15.60;99.90
26589;DHT22;14235;48.532;8.722;2023-09-30T06:42:33;15.40;99.90
26589;DHT22;14235;48.532;8.722;2023-09-30T06:44:59;15.50;99.90
26589;DHT22;14235;48.532;8.722;2023-09-30T06:47:25;15.50;99.90
26589;DHT22;14235;48.532;8.722;2023-09-30T06:49:50;15.50;99.90
26589;DHT22;14235;48.532;8.722;2023-09-30T06:52:16;15.60;99.90
26589;DHT22;14235;48.532;8.722;2023-09-30T06:54:42;15.70;99.90
26589;DHT22;14235;48.532;8.722;2023-09-30T06:57:08;15.60;99.90
26589;DHT22;14235;48.532;8.722;2023-09-30T06:59:35;15.80;99.90
26589;DHT22;14235;48.532;8.722;2023-09-30T07:02:00;15.90;99.90
26589;DHT22;14235;48.532;8.722;2023-09-30T07:04:26;15.90;99.90
26589;DHT22;14235;48.532;8.722;2023-09-30T07:06:53;15.80;99.90
26589;DHT22;14235;48.532;8.722;2023-09-30T07:09:18;15.80;99.90
26589;DHT22;14235;48.532;8.722;2023-09-30T07:11:45;16.00;99.90
26589;DHT22;14235;48.532;8.722;2023-09-30T07:14:11;16.00;99.90
26589;DHT22;14235;48.532;8.722;2023-09-30T07:16:36;16.00;99.90
26589;DHT22;14235;48.532;8.722;2023-09-30T07:19:02;16.10;99.90
26589;DHT22;14235;48.532;8.722;2023-09-30T07:21:28;16.00;99.90
26589;DHT22;14235;48.532;8.722;2023-09-30T07:23:54;15.90;99.90
26589;DHT22;14235;48.532;8.722;2023-09-30T07:26:26;15.80;99.90
26589;DHT22;14235;48.532;8.722;2023-09-30T07:28:53;15.90;99.90
26589;DHT22;14235;48.532;8.722;2023-09-30T07:31:19;15.90;99.90
26589;DHT22;14235;48.532;8.722;2023-09-30T07:33:45;16.10;99.90
26589;DHT22;14235;48.532;8.722;2023-09-30T07:36:11;15.80;99.90
26589;DHT22;14235;48.532;8.722;2023-09-30T07:38:38;16.00;99.90
26589;DHT22;14235;48.532;8.722;2023-09-30T07:41:04;16.00;99.90
26589;DHT22;14235;48.532;8.722;2023-09-30T07:43:30;16.10;99.90
26589;DHT22;14235;48.532;8.722;2023-09-30T07:49:20;16.10;99.90
26589;DHT22;14235;48.532;8.722;2023-09-30T07:51:45;16.10;99.90
26589;DHT22;14235;48.532;8.722;2023-09-30T07:54:14;16.30;99.90
26589;DHT22;14235;48.532;8.722;2023-09-30T07:56:39;16.40;99.90
26589;DHT22;14235;48.532;8.722;2023-09-30T07:59:05;16.40;99.90
26589;DHT22;14235;48.532;8.722;2023-09-30T08:01:31;16.20;99.90
26589;DHT22;14235;48.532;8.722;2023-09-30T08:03:57;16.40;99.90
26589;DHT22;14235;48.532;8.722;2023-09-30T08:06:22;16.40;99.90
26589;DHT22;14235;48.532;8.722;2023-09-30T08:08:49;16.50;99.90
26589;DHT22;14235;48.532;8.722;2023-09-30T08:11:15;16.40;99.90
26589;DHT22;14235;48.532;8.722;2023-09-30T08:13:40;16.60;99.90
26589;DHT22;14235;48.532;8.722;2023-09-30T08:16:06;16.50;99.90
26589;DHT22;14235;48.532;8.722;2023-09-30T08:18:32;16.50;99.90
26589;DHT22;14235;48.532;8.722;2023-09-30T08:20:58;16.70;99.90
26589;DHT22;14235;48.532;8.722;2023-09-30T08:23:24;16.60;99.90
26589;DHT22;14235;48.532;8.722;2023-09-30T08:25:49;16.80;99.90
26589;DHT22;14235;48.532;8.722;2023-09-30T08:28:15;16.70;99.90
26589;DHT22;14235;48.532;8.722;2023-09-30T08:30:41;16.80;99.90
26589;DHT22;14235;48.532;8.722;2023-09-30T08:33:07;16.90;99.90
26589;DHT22;14235;48.532;8.722;2023-09-30T08:35:39;16.90;99.90
26589;DHT22;14235;48.532;8.722;2023-09-30T08:38:05;17.00;99.90
26589;DHT22;14235;48.532;8.722;2023-09-30T08:40:31;17.20;99.90
26589;DHT22;14235;48.532;8.722;2023-09-30T08:42:57;17.30;99.90
26589;DHT22;14235;48.532;8.722;2023-09-30T08:45:23;17.30;99.90
26589;DHT22;14235;48.532;8.722;2023-09-30T08:47:50;17.40;99.90
26589;DHT22;14235;48.532;8.722;2023-09-30T08:50:16;17.30;99.90
26589;DHT22;14235;48.532;8.722;2023-09-30T08:52:44;17.30;99.90
26589;DHT22;14235;48.532;8.722;2023-09-30T08:55:11;17.40;99.90
26589;DHT22;14235;48.532;8.722;2023-09-30T08:57:39;17.50;99.90
26589;DHT22;14235;48.532;8.722;2023-09-30T09:00:06;17.40;99.90
26589;DHT22;14235;48.532;8.722;2023-09-30T09:02:34;17.40;99.90
26589;DHT22;14235;48.532;8.722;2023-09-30T09:05:01;17.50;99.90
26589;DHT22;14235;48.532;8.722;2023-09-30T09:07:27;17.40;99.90
26589;DHT22;14235;48.532;8.722;2023-09-30T09:10:22;17.40;99.90
26589;DHT22;14235;48.532;8.722;2023-09-30T09:12:55;17.40;99.90
26589;DHT22;14235;48.532;8.722;2023-09-30T09:15:25;17.40;99.90
26589;DHT22;14235;48.532;8.722;2023-09-30T09:17:52;17.50;99.90
26589;DHT22;14235;48.532;8.722;2023-09-30T09:20:21;17.50;99.90
26589;DHT22;14235;48.532;8.722;2023-09-30T09:22:49;17.60;99.90
26589;DHT22;14235;48.532;8.722;2023-09-30T09:25:20;17.60;99.90
26589;DHT22;14235;48.532;8.722;2023-09-30T09:27:49;17.60;99.90
26589;DHT22;14235;48.532;8.722;2023-09-30T09:30:22;17.60;99.90
26589;DHT22;14235;48.532;8.722;2023-09-30T09:33:05;17.70;99.90
26589;DHT22;14235;48.532;8.722;2023-09-30T09:35:32;17.80;99.90
26589;DHT22;14235;48.532;8.722;2023-09-30T09:38:03;17.90;99.90
26589;DHT22;14235;48.532;8.722;2023-09-30T09:40:34;17.80;99.90
26589;DHT22;14235;48.532;8.722;2023-09-30T09:43:01;17.80;99.90
26589;DHT22;14235;48.532;8.722;2023-09-30T09:45:32;17.80;99.90
26589;DHT22;14235;48.532;8.722;2023-09-30T09:47:58;17.80;99.90
26589;DHT22;14235;48.532;8.722;2023-09-30T09:50:24;17.80;99.90
26589;DHT22;14235;48.532;8.722;2023-09-30T09:52:51;17.90;99.90
26589;DHT22;14235;48.532;8.722;2023-09-30T09:55:27;18.00;99.90
26589;DHT22;14235;48.532;8.722;2023-09-30T09:57:53;18.10;99.90
26589;DHT22;14235;48.532;8.722;2023-09-30T10:00:22;18.10;99.90
26589;DHT22;14235;48.532;8.722;2023-09-30T10:02:49;18.10;99.90
26589;DHT22;14235;48.532;8.722;2023-09-30T10:05:16;18.30;99.90
26589;DHT22;14235;48.532;8.722;2023-09-30T10:08:13;18.20;99.90
26589;DHT22;14235;48.532;8.722;2023-09-30T10:10:40;18.20;99.90
26589;DHT22;14235;48.532;8.722;2023-09-30T10:13:06;18.20;99.90
26589;DHT22;14235;48.532;8.722;2023-09-30T10:18:01;18.40;99.90
26589;DHT22;14235;48.532;8.722;2023-09-30T10:20:33;18.50;99.90
26589;DHT22;14235;48.532;8.722;2023-09-30T10:23:18;18.60;99.90
26589;DHT22;14235;48.532;8.722;2023-09-30T10:25:46;18.70;99.90
26589;DHT22;14235;48.532;8.722;2023-09-30T10:28:40;18.60;99.80
26589;DHT22;14235;48.532;8.722;2023-09-30T10:31:16;18.70;99.90
26589;DHT22;14235;48.532;8.722;2023-09-30T10:36:38;18.70;99.90
26589;DHT22;14235;48.532;8.722;2023-09-30T10:39:06;18.70;99.50
26589;DHT22;14235;48.532;8.722;2023-09-30T10:44:32;18.70;98.30
26589;DHT22;14235;48.532;8.722;2023-09-30T10:49:46;18.70;98.40
26589;DHT22;14235;48.532;8.722;2023-09-30T10:52:23;18.70;98.70
26589;DHT22;14235;48.532;8.722;2023-09-30T10:54:50;18.70;98.10
26589;DHT22;14235;48.532;8.722;2023-09-30T10:57:26;18.70;98.30
26589;DHT22;14235;48.532;8.722;2023-09-30T11:00:12;18.80;98.40
26589;DHT22;14235;48.532;8.722;2023-09-30T11:02:50;18.70;98.40
26589;DHT22;14235;48.532;8.722;2023-09-30T11:05:17;18.70;98.40
26589;DHT22;14235;48.532;8.722;2023-09-30T11:07:44;18.70;97.90
26589;DHT22;14235;48.532;8.722;2023-09-30T11:10:15;18.70;98.60
26589;DHT22;14235;48.532;8.722;2023-09-30T11:12:54;18.70;98.90
26589;DHT22;14235;48.532;8.722;2023-09-30T11:15:19;18.70;98.80
26589;DHT22;14235;48.532;8.722;2023-09-30T11:17:45;18.80;98.20
26589;DHT22;14235;48.532;8.722;2023-09-30T11:20:11;18.70;98.00
26589;DHT22;14235;48.532;8.722;2023-09-30T11:22:37;18.80;97.90
26589;DHT22;14235;48.532;8.722;2023-09-30T11:25:05;18.90;98.40
26589;DHT22;14235;48.532;8.722;2023-09-30T11:27:30;18.90;98.00
26589;DHT22;14235;48.532;8.722;2023-09-30T11:29:57;18.90;97.90
26589;DHT22;14235;48.532;8.722;2023-09-30T11:32:28;19.00;97.80
26589;DHT22;14235;48.532;8.722;2023-09-30T11:34:54;19.10;97.20
26589;DHT22;14235;48.532;8.722;2023-09-30T11:37:20;19.10;97.20
26589;DHT22;14235;48.532;8.722;2023-09-30T11:39:47;19.20;97.20
26589;DHT22;14235;48.532;8.722;2023-09-30T11:42:17;19.40;97.00
26589;DHT22;14235;48.532;8.722;2023-09-30T11:44:49;19.40;96.60
26589;DHT22;14235;48.532;8.722;2023-09-30T11:47:16;19.60;96.10
26589;DHT22;14235;48.532;8.722;2023-09-30T11:49:43;19.70;95.30
26589;DHT22;14235;48.532;8.722;2023-09-30T11:52:14;19.80;95.10
26589;DHT22;14235;48.532;8.722;2023-09-30T11:54:41;19.90;94.50
26589;DHT22;14235;48.532;8.722;2023-09-30T11:57:12;20.00;94.30
26589;DHT22;14235;48.532;8.722;2023-09-30T11:59:41;20.10;93.70
26589;DHT22;14235;48.532;8.722;2023-09-30T12:02:08;20.10;93.50
26589;DHT22;14235;48.532;8.722;2023-09-30T12:04:37;20.20;93.20
26589;DHT22;14235;48.532;8.722;2023-09-30T12:07:04;20.10;92.80
26589;DHT22;14235;48.532;8.722;2023-09-30T12:09:29;20.20;93.10
26589;DHT22;14235;48.532;8.722;2023-09-30T12:11:57;20.10;93.60
26589;DHT22;14235;48.532;8.722;2023-09-30T12:14:24;20.10;92.80
26589;DHT22;14235;48.532;8.722;2023-09-30T12:16:49;20.10;92.50
26589;DHT22;14235;48.532;8.722;2023-09-30T12:19:18;20.00;92.20
26589;DHT22;14235;48.532;8.722;2023-09-30T12:21:46;20.10;92.10
26589;DHT22;14235;48.532;8.722;2023-09-30T12:24:14;20.10;91.90
26589;DHT22;14235;48.532;8.722;2023-09-30T12:26:48;20.00;92.00
26589;DHT22;14235;48.532;8.722;2023-09-30T12:29:19;20.00;92.10
26589;DHT22;14235;48.532;8.722;2023-09-30T12:31:48;20.00;92.10
26589;DHT22;14235;48.532;8.722;2023-09-30T12:34:14;19.90;92.10
26589;DHT22;14235;48.532;8.722;2023-09-30T12:36:40;20.00;92.90
26589;DHT22;14235;48.532;8.722;2023-09-30T12:39:07;20.00;92.20
26589;DHT22;14235;48.532;8.722;2023-09-30T12:41:43;20.20;92.40
26589;DHT22;14235;48.532;8.722;2023-09-30T12:44:09;20.30;91.60
26589;DHT22;14235;48.532;8.722;2023-09-30T12:46:36;20.30;91.80
26589;DHT22;14235;48.532;8.722;2023-09-30T12:49:11;20.50;92.40
26589;DHT22;14235;48.532;8.722;2023-09-30T12:51:38;20.50;92.80
26589;DHT22;14235;48.532;8.722;2023-09-30T12:54:04;20.60;92.60
26589;DHT22;14235;48.532;8.722;2023-09-30T12:56:30;20.70;92.70
26589;DHT22;14235;48.532;8.722;2023-09-30T12:58:56;20.80;92.30
26589;DHT22;14235;48.532;8.722;2023-09-30T13:01:22;20.90;90.10
26589;DHT22;14235;48.532;8.722;2023-09-30T13:03:48;21.20;90.30
26589;DHT22;14235;48.532;8.722;2023-09-30T13:06:14;21.30;88.40
26589;DHT22;14235;48.532;8.722;2023-09-30T13:08:41;21.50;88.40
26589;DHT22;14235;48.532;8.722;2023-09-30T13:11:07;21.80;87.10
26589;DHT22;14235;48.532;8.722;2023-09-30T13:13:33;22.70;85.40
26589;DHT22;14235;48.532;8.722;2023-09-30T13:16:01;23.90;82.20
26589;DHT22;14235;48.532;8.722;2023-09-30T13:18:27;23.80;82.80
26589;DHT22;14235;48.532;8.722;2023-09-30T13:20:53;23.40;83.20
26589;DHT22;14235;48.532;8.722;2023-09-30T13:23:19;23.10;82.30
26589;DHT22;14235;48.532;8.722;2023-09-30T13:25:45;22.70;83.20
26589;DHT22;14235;48.532;8.722;2023-09-30T13:28:11;22.60;86.20
26589;DHT22;14235;48.532;8.722;2023-09-30T13:30:37;23.00;85.60
26589;DHT22;14235;48.532;8.722;2023-09-30T13:33:03;23.80;91.60
26589;DHT22;14235;48.532;8.722;2023-09-30T13:35:49;24.70;87.60
26589;DHT22;14235;48.532;8.722;2023-09-30T13:38:15;26.50;84.10
26589;DHT22;14235;48.532;8.722;2023-09-30T13:40:41;26.80;70.70
26589;DHT22;14235;48.532;8.722;2023-09-30T13:43:07;26.50;69.50
26589;DHT22;14235;48.532;8.722;2023-09-30T13:45:32;25.90;71.40
26589;DHT22;14235;48.532;8.722;2023-09-30T13:47:59;25.20;72.40
26589;DHT22;14235;48.532;8.722;2023-09-30T13:50:25;24.50;74.10
26589;DHT22;14235;48.532;8.722;2023-09-30T13:52:50;23.80;75.30
26589;DHT22;14235;48.532;8.722;2023-09-30T13:55:16;23.20;77.30
26589;DHT22;14235;48.532;8.722;2023-09-30T13:57:47;22.80;79.20
26589;DHT22;14235;48.532;8.722;2023-09-30T14:00:14;22.60;80.60
26589;DHT22;14235;48.532;8.722;2023-09-30T14:02:41;22.20;81.90
26589;DHT22;14235;48.532;8.722;2023-09-30T14:05:08;21.90;81.50
26589;DHT22;14235;48.532;8.722;2023-09-30T14:07:35;22.00;82.60
26589;DHT22;14235;48.532;8.722;2023-09-30T14:10:01;22.00;83.70
26589;DHT22;14235;48.532;8.722;2023-09-30T14:12:26;21.90;82.50
26589;DHT22;14235;48.532;8.722;2023-09-30T14:14:52;21.90;83.50
26589;DHT22;14235;48.532;8.722;2023-09-30T14:17:18;21.70;84.40
26589;DHT22;14235;48.532;8.722;2023-09-30T14:19:44;21.70;84.40
26589;DHT22;14235;48.532;8.722;2023-09-30T14:22:09;21.90;83.90
26589;DHT22;14235;48.532;8.722;2023-09-30T14:24:35;22.20;83.90
26589;DHT22;14235;48.532;8.722;2023-09-30T14:27:04;22.90;82.50
26589;DHT22;14235;48.532;8.722;2023-09-30T14:29:30;23.60;80.60
26589;DHT22;14235;48.532;8.722;2023-09-30T14:31:56;24.10;78.90
26589;DHT22;14235;48.532;8.722;2023-09-30T14:34:23;24.10;77.50
26589;DHT22;14235;48.532;8.722;2023-09-30T14:36:49;24.00;76.80
26589;DHT22;14235;48.532;8.722;2023-09-30T14:39:14;23.90;76.60
26589;DHT22;14235;48.532;8.722;2023-09-30T14:41:44;23.80;77.10
26589;DHT22;14235;48.532;8.722;2023-09-30T14:44:10;23.70;76.90
26589;DHT22;14235;48.532;8.722;2023-09-30T14:46:40;23.50;77.40
26589;DHT22;14235;48.532;8.722;2023-09-30T14:49:06;23.40;78.50
26589;DHT22;14235;48.532;8.722;2023-09-30T14:51:33;23.30;78.00
26589;DHT22;14235;48.532;8.722;2023-09-30T14:53:58;23.10;78.40
26589;DHT22;14235;48.532;8.722;2023-09-30T14:56:24;23.00;79.60
26589;DHT22;14235;48.532;8.722;2023-09-30T14:58:49;22.80;79.00
26589;DHT22;14235;48.532;8.722;2023-09-30T15:01:15;22.60;79.40
26589;DHT22;14235;48.532;8.722;2023-09-30T15:03:40;22.40;80.00
26589;DHT22;14235;48.532;8.722;2023-09-30T15:06:07;22.30;80.80
26589;DHT22;14235;48.532;8.722;2023-09-30T15:08:33;22.10;81.20
26589;DHT22;14235;48.532;8.722;2023-09-30T15:11:02;21.90;81.40
26589;DHT22;14235;48.532;8.722;2023-09-30T15:13:28;22.00;82.10
26589;DHT22;14235;48.532;8.722;2023-09-30T15:15:54;21.80;83.30
26589;DHT22;14235;48.532;8.722;2023-09-30T15:18:20;21.80;84.10
26589;DHT22;14235;48.532;8.722;2023-09-30T15:20:45;21.90;85.00
26589;DHT22;14235;48.532;8.722;2023-09-30T15:23:12;21.80;85.00
26589;DHT22;14235;48.532;8.722;2023-09-30T15:25:41;21.70;85.10
26589;DHT22;14235;48.532;8.722;2023-09-30T15:28:08;21.70;84.70
26589;DHT22;14235;48.532;8.722;2023-09-30T15:30:34;21.70;85.10
26589;DHT22;14235;48.532;8.722;2023-09-30T15:32:59;21.60;85.70
26589;DHT22;14235;48.532;8.722;2023-09-30T15:35:27;21.60;85.50
26589;DHT22;14235;48.532;8.722;2023-09-30T15:37:52;21.50;85.80
26589;DHT22;14235;48.532;8.722;2023-09-30T15:40:18;21.50;85.80
26589;DHT22;14235;48.532;8.722;2023-09-30T15:42:44;21.50;86.30
26589;DHT22;14235;48.532;8.722;2023-09-30T15:45:11;21.40;86.60